createdAt,value
2022-10-05T02:42:31.684Z,5.40
2022-10-05T02:45:07.363Z,5.30
2022-10-05T02:47:46.301Z,5.40
2022-10-05T02:50:21.636Z,5.50
2022-10-05T02:52:51.148Z,5.60
2022-10-05T02:55:19.947Z,5.70
2022-10-05T02:57:56.277Z,5.50
2022-10-05T03:00:26.203Z,5.50
2022-10-05T03:03:15.405Z,5.40
2022-10-05T03:05:54.535Z,5.20
2022-10-05T03:08:32.957Z,5.40
2022-10-05T03:11:00.624Z,5.40
2022-10-05T03:13:40.217Z,5.20
2022-10-05T03:16:13.108Z,5.20
2022-10-05T03:18:40.027Z,5.20
2022-10-05T03:21:11.084Z,5.20
2022-10-05T03:23:49.595Z,5.20
2022-10-05T03:26:29.685Z,5.40
2022-10-05T03:29:08.907Z,5.40
2022-10-05T03:31:43.821Z,5.60
2022-10-05T03:34:23.158Z,5.60
2022-10-05T03:36:53.143Z,5.40
2022-10-05T03:39:26.368Z,5.50
2022-10-05T03:42:00.243Z,5.40
2022-10-05T03:44:32.996Z,5.10
2022-10-05T03:46:59.696Z,5.00
2022-10-05T03:49:35.714Z,5.20
2022-10-05T03:52:07.179Z,5.30
2022-10-05T03:54:43.149Z,5.30
2022-10-05T03:57:21.356Z,5.20
2022-10-05T03:59:56.302Z,5.10
2022-10-05T04:02:29.118Z,5.10
2022-10-05T04:04:56.090Z,5.10
2022-10-05T04:07:38.515Z,5.10
2022-10-05T04:10:10.051Z,5.20
2022-10-05T04:12:38.758Z,5.20
2022-10-05T04:15:24.530Z,5.30
2022-10-05T04:17:56.096Z,5.20
2022-10-05T04:20:25.796Z,5.30
2022-10-05T04:22:58.761Z,5.00
2022-10-05T04:25:35.699Z,5.20
2022-10-05T04:28:14.663Z,5.30
2022-10-05T04:30:44.786Z,5.30
2022-10-05T04:33:12.345Z,5.30
2022-10-05T04:35:57.993Z,5.20
2022-10-05T04:38:34.745Z,4.90
2022-10-05T04:41:11.438Z,4.90
2022-10-05T04:43:51.065Z,4.80
2022-10-05T04:46:27.466Z,5.00
2022-10-05T04:49:03.241Z,5.10
2022-10-05T04:51:30.231Z,5.20
2022-10-05T04:54:02.023Z,5.10
2022-10-05T04:56:51.479Z,4.90
2022-10-05T04:59:37.233Z,4.80
2022-10-05T05:02:03.928Z,5.10
2022-10-05T05:04:52.015Z,5.20
2022-10-05T05:07:52.514Z,5.20
2022-10-05T05:10:51.835Z,5.30
2022-10-05T05:13:25.013Z,5.40
2022-10-05T05:16:01.486Z,5.40
2022-10-05T05:18:53.333Z,5.60
2022-10-05T05:21:29.147Z,5.60
2022-10-05T05:24:09.219Z,5.60
2022-10-05T05:26:49.799Z,5.60
2022-10-05T05:29:21.458Z,5.70
2022-10-05T05:31:51.891Z,5.70
2022-10-05T05:34:19.281Z,5.70
2022-10-05T05:37:01.305Z,5.90
2022-10-05T05:39:29.226Z,5.90
2022-10-05T05:41:59.366Z,6.00
2022-10-05T05:44:27.846Z,6.10
2022-10-05T05:47:04.944Z,6.20
2022-10-05T05:49:41.820Z,6.30
2022-10-05T05:52:20.171Z,6.40
2022-10-05T05:54:54.657Z,6.50
2022-10-05T05:57:33.186Z,6.60
2022-10-05T05:59:59.829Z,6.80
2022-10-05T06:02:29.218Z,6.70
2022-10-05T06:05:02.594Z,6.80
2022-10-05T06:07:30.854Z,6.90
2022-10-05T06:10:04.270Z,7.00
2022-10-05T06:12:42.905Z,7.00
2022-10-05T06:15:28.518Z,7.00
2022-10-05T06:17:57.895Z,7.20
2022-10-05T06:20:49.051Z,7.30
2022-10-05T06:23:42.353Z,7.50
2022-10-05T06:26:12.906Z,7.70
2022-10-05T06:28:41.539Z,8.00
2022-10-05T07:23:52.383Z,9.90
2022-10-05T07:26:27.696Z,9.90
2022-10-05T07:29:06.928Z,9.80
2022-10-05T07:32:03.898Z,9.80
2022-10-05T07:34:39.977Z,10.00
2022-10-05T07:37:06.961Z,10.10
2022-10-05T07:39:58.443Z,10.10
2022-10-05T07:42:38.476Z,10.20
2022-10-05T07:45:22.002Z,10.40
2022-10-05T07:47:53.248Z,10.40
2022-10-05T07:50:34.867Z,10.80
2022-10-05T07:53:05.079Z,10.80
2022-10-05T07:55:33.864Z,10.80
2022-10-05T07:58:20.256Z,10.90
2022-10-05T08:00:55.022Z,11.00
2022-10-05T08:03:42.030Z,11.00
2022-10-05T08:06:12.077Z,10.90
2022-10-05T08:08:38.740Z,11.20
2022-10-05T08:11:11.260Z,11.20
2022-10-05T08:13:42.320Z,11.20
2022-10-05T08:16:10.356Z,11.20
2022-10-05T08:18:48.319Z,11.00
2022-10-05T08:21:16.908Z,11.00
2022-10-05T08:24:02.233Z,11.20
2022-10-05T08:26:34.931Z,11.30
2022-10-05T08:29:13.728Z,11.50
2022-10-05T08:31:42.905Z,11.40
2022-10-05T08:34:21.058Z,11.80
2022-10-05T08:37:00.585Z,12.10
2022-10-05T08:39:30.588Z,12.30
2022-10-05T08:42:06.489Z,12.30
2022-10-05T08:44:51.763Z,12.10
2022-10-05T08:47:21.360Z,12.40
2022-10-05T08:49:48.015Z,12.30
2022-10-05T08:52:29.967Z,12.30
2022-10-05T08:55:15.214Z,12.30
2022-10-05T08:57:44.649Z,12.50
2022-10-05T09:00:12.781Z,12.40
2022-10-05T09:02:58.533Z,12.70
2022-10-05T09:05:32.932Z,13.00
2022-10-05T09:08:02.401Z,13.00
2022-10-05T09:10:29.040Z,13.00
2022-10-05T09:13:11.348Z,12.80
2022-10-05T09:15:50.328Z,12.70
2022-10-05T09:18:22.899Z,12.70
2022-10-05T09:20:49.564Z,12.60
2022-10-05T09:23:35.132Z,12.60
2022-10-05T09:26:01.766Z,12.60
2022-10-05T09:28:28.449Z,12.70
2022-10-05T09:31:13.997Z,12.80
2022-10-05T09:33:59.552Z,12.70
2022-10-05T09:36:49.045Z,13.10
2022-10-05T09:39:18.800Z,13.10
2022-10-05T09:41:48.863Z,13.20
2022-10-05T09:44:15.884Z,13.50
2022-10-05T09:46:45.549Z,13.50
2022-10-05T09:49:18.240Z,13.70
2022-10-05T09:52:03.411Z,13.90
2022-10-05T09:54:32.832Z,14.00
2022-10-05T09:57:05.502Z,14.20
2022-10-05T09:59:54.186Z,14.40
2022-10-05T10:02:30.540Z,14.60
2022-10-05T10:05:04.675Z,14.60
2022-10-05T10:07:31.392Z,14.60
2022-10-05T10:10:21.584Z,14.70
2022-10-05T10:12:54.366Z,14.60
2022-10-05T10:15:39.749Z,15.10
2022-10-05T10:18:06.406Z,15.10
2022-10-05T10:20:38.547Z,15.20
2022-10-05T10:23:23.712Z,14.80
2022-10-05T10:26:10.195Z,14.80
2022-10-05T10:28:51.925Z,14.80
2022-10-05T10:31:31.025Z,14.80
2022-10-05T10:34:16.670Z,15.00
2022-10-05T10:36:55.670Z,15.00
2022-10-05T10:39:22.359Z,15.20
2022-10-05T10:41:52.133Z,15.50
2022-10-05T10:44:33.809Z,15.50
2022-10-05T10:47:00.477Z,15.30
2022-10-05T10:49:42.501Z,15.40
2022-10-05T10:52:28.201Z,15.50
2022-10-05T10:54:57.708Z,15.50
2022-10-05T10:57:43.345Z,15.50
2022-10-05T11:00:19.738Z,15.80
2022-10-05T11:02:46.458Z,16.00
2022-10-05T11:05:25.327Z,15.90
2022-10-05T11:07:58.155Z,15.90
2022-10-05T11:10:24.770Z,15.80
2022-10-05T11:12:51.410Z,16.00
2022-10-05T11:15:34.450Z,15.90
2022-10-05T11:18:13.088Z,15.90
2022-10-05T11:20:58.688Z,15.80
2022-10-05T11:23:44.004Z,16.00
2022-10-05T11:26:19.534Z,16.30
2022-10-05T11:29:02.333Z,16.20
2022-10-05T11:31:41.071Z,16.20
2022-10-05T11:34:16.394Z,16.30
2022-10-05T11:36:52.909Z,16.00
2022-10-05T11:39:35.306Z,16.10
2022-10-05T11:42:20.816Z,16.00
2022-10-05T11:44:50.506Z,16.10
2022-10-05T11:47:17.120Z,16.10
2022-10-05T11:49:49.996Z,16.00
2022-10-05T11:52:22.805Z,16.10
2022-10-05T11:55:10.260Z,16.10
2022-10-05T11:57:42.416Z,16.10
2022-10-05T12:00:23.215Z,16.10
2022-10-05T12:03:00.072Z,16.10
2022-10-05T12:05:39.722Z,16.20
2022-10-05T12:08:23.613Z,16.20
2022-10-05T12:11:06.967Z,16.40
2022-10-05T12:13:37.773Z,16.60
2022-10-05T12:16:18.536Z,16.70
2022-10-05T12:18:56.393Z,16.70
2022-10-05T12:21:41.486Z,16.50
2022-10-05T12:24:11.234Z,16.40
2022-10-05T12:26:43.520Z,16.20
2022-10-05T12:29:13.174Z,16.30
2022-10-05T12:31:39.856Z,16.20
2022-10-05T12:34:09.548Z,16.10
2022-10-05T12:37:05.796Z,16.20
2022-10-05T12:39:37.742Z,16.10
2022-10-05T12:42:07.518Z,16.20
2022-10-05T12:44:34.116Z,16.20
2022-10-05T12:47:19.559Z,16.30
2022-10-05T12:49:58.121Z,16.40
2022-10-05T12:52:27.789Z,16.60
2022-10-05T12:55:00.282Z,16.50
2022-10-05T12:57:31.447Z,16.40
2022-10-05T13:00:02.356Z,16.30
2022-10-05T13:02:41.049Z,16.40
2022-10-05T13:05:10.525Z,16.40
2022-10-05T13:07:37.164Z,16.30
2022-10-05T13:10:22.640Z,16.50
2022-10-05T13:12:57.903Z,16.30
2022-10-05T13:15:43.448Z,16.20
2022-10-05T13:18:12.914Z,16.40
2022-10-05T13:20:44.214Z,16.30
2022-10-05T13:23:16.888Z,16.20
2022-10-05T13:26:03.792Z,16.10
2022-10-05T13:28:34.883Z,16.00
2022-10-05T13:31:22.984Z,16.10
2022-10-05T13:33:58.059Z,16.10
2022-10-05T13:36:39.193Z,16.00
2022-10-05T13:39:06.095Z,16.10
2022-10-05T13:41:32.778Z,16.10
2022-10-05T13:43:59.429Z,16.10
2022-10-05T13:46:29.194Z,16.20
2022-10-05T13:49:03.386Z,16.10
2022-10-05T13:51:30.069Z,16.10
2022-10-05T13:54:06.107Z,16.00
2022-10-05T13:56:35.386Z,16.00
2022-10-05T13:59:17.243Z,16.10
2022-10-05T14:01:47.792Z,16.00
2022-10-05T14:04:21.595Z,15.90
2022-10-05T14:06:49.047Z,15.90
2022-10-05T14:09:22.000Z,15.80
2022-10-05T14:12:11.733Z,15.80
2022-10-05T14:14:49.562Z,15.70
2022-10-05T14:17:32.118Z,15.70
2022-10-05T14:20:00.446Z,15.70
2022-10-05T14:22:27.515Z,15.70
2022-10-05T14:24:55.570Z,15.60
2022-10-05T14:27:26.564Z,15.60
2022-10-05T14:29:57.935Z,15.60
2022-10-05T14:32:25.380Z,15.50
2022-10-05T14:34:58.633Z,15.50
2022-10-05T14:37:31.240Z,15.50
2022-10-05T14:40:03.397Z,15.50
2022-10-05T14:42:44.941Z,15.40
2022-10-05T14:45:24.128Z,15.40
2022-10-05T14:47:55.283Z,15.40
2022-10-05T14:50:23.290Z,15.30
2022-10-05T14:53:08.674Z,15.30
2022-10-05T14:55:50.861Z,15.30
2022-10-05T14:58:43.953Z,15.30
2022-10-05T15:01:21.518Z,15.20
2022-10-05T15:03:58.090Z,15.20
2022-10-05T15:06:31.547Z,15.20
2022-10-05T15:09:01.190Z,15.20
2022-10-05T15:11:46.759Z,15.10
2022-10-05T15:14:33.875Z,15.00
2022-10-05T15:17:02.775Z,15.00
2022-10-05T15:19:42.315Z,14.90
2022-10-05T15:22:27.517Z,14.90
2022-10-05T15:25:12.835Z,14.80
2022-10-05T15:27:58.059Z,14.80
2022-10-05T15:30:24.787Z,14.70
2022-10-05T15:33:03.565Z,14.70
2022-10-05T15:35:48.949Z,14.50
2022-10-05T15:38:26.050Z,14.40
2022-10-05T15:41:01.914Z,14.30
2022-10-05T15:43:33.494Z,14.20
2022-10-05T15:46:05.134Z,14.20
2022-10-05T15:48:41.220Z,14.00
2022-10-05T15:51:21.572Z,13.90
2022-10-05T15:53:54.134Z,13.80
2022-10-05T15:56:29.182Z,13.70
2022-10-05T15:59:01.747Z,13.60
2022-10-05T16:01:31.452Z,13.70
2022-10-05T16:04:10.968Z,13.70
2022-10-05T16:06:37.598Z,13.60
2022-10-05T16:09:18.181Z,13.40
2022-10-05T16:11:53.967Z,13.10
2022-10-05T16:14:38.203Z,13.00
2022-10-05T16:17:07.906Z,13.00
2022-10-05T16:19:45.250Z,12.70
2022-10-05T16:22:24.974Z,12.70
2022-10-05T16:24:57.381Z,12.60
2022-10-05T16:27:33.132Z,12.50
2022-10-05T16:30:04.798Z,12.50
2022-10-05T16:32:42.322Z,12.30
2022-10-05T16:35:11.763Z,12.30
2022-10-05T16:37:43.138Z,12.20
2022-10-05T16:40:28.785Z,12.10
2022-10-05T16:43:14.156Z,12.00
2022-10-05T16:45:49.421Z,11.90
2022-10-05T16:48:22.459Z,11.90
2022-10-05T16:50:52.284Z,11.90
2022-10-05T16:53:25.208Z,11.80
2022-10-05T16:55:54.461Z,11.80
2022-10-05T16:58:24.827Z,11.80
2022-10-05T17:01:00.425Z,11.70
2022-10-05T17:03:38.328Z,11.60
2022-10-05T17:06:04.987Z,11.70
2022-10-05T17:08:34.650Z,11.60
2022-10-05T17:11:01.285Z,11.50
2022-10-05T17:13:34.092Z,11.50
2022-10-05T17:16:14.778Z,11.40
2022-10-05T17:18:47.681Z,11.30
2022-10-05T17:21:32.961Z,11.30
2022-10-05T17:24:05.738Z,11.30
2022-10-05T17:26:33.994Z,11.20
2022-10-05T17:29:24.027Z,11.10
2022-10-05T17:32:05.901Z,11.20
2022-10-05T17:34:33.518Z,11.20
2022-10-05T17:37:19.062Z,11.20
2022-10-05T17:39:50.837Z,11.20
2022-10-05T17:42:26.891Z,11.20
2022-10-05T17:45:20.128Z,11.20
2022-10-05T17:48:01.077Z,11.20
2022-10-05T17:50:37.895Z,11.20
2022-10-05T17:53:21.638Z,11.20
2022-10-05T17:56:00.963Z,11.10
2022-10-05T17:58:28.068Z,11.20
2022-10-05T18:00:58.124Z,11.00
2022-10-05T18:03:35.803Z,11.00
2022-10-05T18:06:21.514Z,11.00
2022-10-05T18:08:48.184Z,11.00
2022-10-05T18:11:33.219Z,10.90
2022-10-05T18:14:19.777Z,10.90
2022-10-05T18:16:59.565Z,10.90
2022-10-05T18:19:27.852Z,10.90
2022-10-05T18:22:21.112Z,10.80
2022-10-05T18:25:02.145Z,10.80
2022-10-05T18:27:30.787Z,10.90
2022-10-05T18:29:57.596Z,10.80
2022-10-05T18:32:43.070Z,10.70
2022-10-05T18:35:21.387Z,10.70
2022-10-05T18:38:03.206Z,10.70
2022-10-05T18:40:46.188Z,10.70
2022-10-05T18:43:28.219Z,10.70
2022-10-05T18:45:57.872Z,10.60
2022-10-05T18:48:30.755Z,10.60
2022-10-05T18:51:06.188Z,10.60
2022-10-05T18:53:33.551Z,10.60
2022-10-05T18:56:20.915Z,10.70
2022-10-05T18:58:57.142Z,10.80
2022-10-05T19:01:30.151Z,10.80
2022-10-05T19:04:03.743Z,10.90
2022-10-05T19:06:33.197Z,10.80
2022-10-05T19:09:20.194Z,10.80
2022-10-05T19:11:46.914Z,10.70
2022-10-05T19:14:13.955Z,10.60
2022-10-05T19:16:51.131Z,10.50
2022-10-05T19:19:37.093Z,10.60
2022-10-05T19:22:03.821Z,10.80
2022-10-05T19:24:36.349Z,10.70
2022-10-05T19:27:12.220Z,10.70
2022-10-05T19:29:57.441Z,10.60
2022-10-05T19:32:36.236Z,10.60
2022-10-05T19:35:03.335Z,10.60
2022-10-05T19:37:39.650Z,10.50
2022-10-05T19:40:32.930Z,10.40
2022-10-05T19:43:18.975Z,10.40
2022-10-05T19:46:05.982Z,10.40
2022-10-05T19:48:32.773Z,10.40
2022-10-05T19:51:00.675Z,10.40
2022-10-05T19:53:32.665Z,10.20
2022-10-05T19:56:19.496Z,10.10
2022-10-05T19:58:46.814Z,10.10
2022-10-05T20:01:22.132Z,10.10
2022-10-05T20:03:50.436Z,10.10
2022-10-05T20:06:18.964Z,10.10
2022-10-05T20:08:47.000Z,10.10
2022-10-05T20:11:18.397Z,10.00
2022-10-05T20:14:08.260Z,10.10
2022-10-05T20:16:35.361Z,10.00
2022-10-05T20:19:03.122Z,10.00
2022-10-05T20:21:38.940Z,9.90
2022-10-05T20:24:16.681Z,9.90
2022-10-05T20:26:43.399Z,9.80
2022-10-05T20:29:10.170Z,9.80
2022-10-05T20:31:36.911Z,9.90
2022-10-05T20:34:03.774Z,9.90
2022-10-05T20:36:30.509Z,9.80
2022-10-05T20:38:57.291Z,9.80
2022-10-05T20:41:24.029Z,9.90
2022-10-05T20:43:50.742Z,9.80
2022-10-05T20:46:17.500Z,9.80
2022-10-05T20:48:44.443Z,9.80
2022-10-05T20:51:11.228Z,9.70
2022-10-05T20:53:37.941Z,9.70
2022-10-05T20:56:04.718Z,9.70
2022-10-05T20:58:31.754Z,9.70
2022-10-05T21:00:58.663Z,9.60
2022-10-05T21:03:25.428Z,9.60
2022-10-05T21:05:52.130Z,9.70
2022-10-05T21:08:18.918Z,9.60
2022-10-05T21:10:45.613Z,9.60
2022-10-05T21:13:12.263Z,9.60
2022-10-05T21:15:38.886Z,9.70
2022-10-05T21:18:05.543Z,9.80
2022-10-05T21:20:32.225Z,9.80
2022-10-05T21:22:58.847Z,9.90
2022-10-05T21:25:25.492Z,10.00
2022-10-05T21:27:52.202Z,10.00
2022-10-05T21:30:18.826Z,10.10
2022-10-05T21:32:45.576Z,10.00
2022-10-05T21:35:12.245Z,9.90
2022-10-05T21:37:38.976Z,9.90
2022-10-05T21:40:05.924Z,9.90
2022-10-05T21:42:32.641Z,9.90
2022-10-05T21:44:59.304Z,9.90
2022-10-05T21:47:25.990Z,9.90
2022-10-05T21:49:52.937Z,9.90
2022-10-05T21:52:19.935Z,9.90
2022-10-05T21:54:46.695Z,9.90
2022-10-05T21:57:13.385Z,9.80
2022-10-05T21:59:40.233Z,9.80
2022-10-05T22:02:06.886Z,9.80
2022-10-05T22:04:33.576Z,9.70
2022-10-05T22:07:00.300Z,9.80
2022-10-05T22:09:26.967Z,9.90
2022-10-05T22:11:53.650Z,9.90
2022-10-05T22:14:20.263Z,10.00
2022-10-05T22:16:47.036Z,10.10
2022-10-05T22:19:15.479Z,10.20
2022-10-05T22:21:42.170Z,10.20
2022-10-05T22:24:09.243Z,10.10
2022-10-05T22:26:35.999Z,10.10
2022-10-05T22:29:02.774Z,10.00
2022-10-05T22:31:29.563Z,9.90
2022-10-05T22:33:56.279Z,9.90
2022-10-05T22:36:23.013Z,9.80
2022-10-05T22:38:49.691Z,9.80
2022-10-05T22:41:16.386Z,9.70
2022-10-05T22:43:43.133Z,9.60
2022-10-05T22:46:13.191Z,9.50
2022-10-05T22:51:07.300Z,9.30
2022-10-05T22:53:34.227Z,9.20
2022-10-05T22:56:08.000Z,9.20
2022-10-05T22:58:35.029Z,9.20
2022-10-05T23:01:02.599Z,9.20
2022-10-05T23:03:29.762Z,9.10
2022-10-05T23:05:57.736Z,8.90
2022-10-05T23:08:24.557Z,8.90
2022-10-05T23:10:51.272Z,8.90
2022-10-05T23:13:17.926Z,8.90
2022-10-05T23:15:44.634Z,9.00
2022-10-05T23:18:11.785Z,9.00
2022-10-05T23:20:38.470Z,9.00
2022-10-05T23:23:05.097Z,9.00
2022-10-05T23:25:31.742Z,9.00
2022-10-05T23:27:58.415Z,9.00
2022-10-05T23:30:25.261Z,9.00
2022-10-05T23:32:51.954Z,8.80
2022-10-05T23:35:18.625Z,9.00
2022-10-05T23:37:45.407Z,8.90
2022-10-05T23:40:13.769Z,8.80
2022-10-05T23:42:40.844Z,8.80
2022-10-05T23:45:11.339Z,8.80
2022-10-05T23:47:38.567Z,8.80
2022-10-05T23:50:05.831Z,8.90
2022-10-05T23:52:33.113Z,8.80
2022-10-05T23:54:59.779Z,8.80
2022-10-05T23:57:26.446Z,8.70
2022-10-05T23:59:53.301Z,8.60
